map of DBQ home
DBQ - Airport
Location
City:  Dubuque, Iowa, United States
Name:Dubuque Regional
ICAO:KDBQ
IATA:DBQ
FAA LID:DBQ

Details
Type:Airport (Part 139 Class I)
Use:Public/Civil
Latitude:4224'07"N (42.402000)
Longitude:9042'34"W (-90.709471)
Datum:WGS 1984
Elevation:1076 ft (328 m)
Variation:1.63W (WMM2015 magnetic declination)
-0.07 annual change
Runways:2
Longest:6502 × 100 ft (1982 × 30.5 m), paved

Time
Time Zone:UTC-6 (DST-5)
Local Time:

Weather
METAR:KDBQ 102353Z 24005KT 8SM CLR M05/M08 A3014 RMK AO2 SLP227 T10501078 10006 21050 58001
TAF:KDBQ 102320Z 1100/1124 26007KT P6SM SCT250
FM110700 24007KT 5SM BR SKC
FM111400 24007KT P6SM BKN250

Related Locations
Nearby:
Farthest:YAUG: 10937 mi / 17602 km
Augusta [Augusta Airport], WA, AU

Find:

   beyond  
but within

Other Information
Maps:
Delays:
NOTAMs:
Links:
Sources:

  
  • flag of United States
  • flag of Iowa
  

Airport Diagram

Airport diagram for DBQ

Airport diagram PDF

Sectional Chart

Flight Planning
at skyvector.com

Satellite Image

Google Maps Satellite view

 

Copyright © 2004-2018 Karl L. Swartz. All rights reserved.
The Great Circle Mapper name and logo are trademarks of the Great Circle Mapper.
All other trademarks mentioned herein belong to their respective owners.
Please see credits for attibutions and further copyright information.

  Follow gcmap on Facebook Follow gcmap on Twitter Follow gcmap on Google+ GCmap on LinkedIn

hCard Microformat

Geo Microformat